Time;durP1;ratioP1;P1;durP2;ratioP2;P2;SDS_P1;SDS_P2;PMS_P1;PMS_P2;Temp;Humidity;BMP_temperature;BMP_pressure;BME280_temperature;BME280_humidity;BME280_pressure;Samples;Min_cycle;Max_cycle;Signal;HPM_P1;HPM_P2
2022/03/12 00:01:08;;;;;;;11.40;9.23;;;4.20;68.80;;;;;;4960007;29;20451;-80
2022/03/12 00:03:37;;;;;;;11.37;10.27;;;4.20;68.80;;;;;;4948797;28;20475;-80
2022/03/12 00:06:06;;;;;;;9.43;8.43;;;4.20;68.90;;;;;;4941667;29;20479;-80
2022/03/12 00:08:41;;;;;;;10.33;8.73;;;4.20;69.60;;;;;;4940553;28;20447;-80
2022/03/12 00:11:14;;;;;;;10.73;8.97;;;4.10;68.80;;;;;;4942701;29;20854;-80
2022/03/12 00:13:43;;;;;;;8.97;8.07;;;4.10;68.90;;;;;;4940720;29;20483;-80
2022/03/12 00:16:15;;;;;;;9.87;8.57;;;4.10;68.90;;;;;;4940947;28;20443;-80
2022/03/12 00:18:44;;;;;;;9.50;8.50;;;4.10;68.90;;;;;;4956547;29;20447;-80
2022/03/12 00:21:13;;;;;;;10.87;9.67;;;4.10;69.00;;;;;;4941933;29;20473;-80
2022/03/12 00:23:49;;;;;;;12.13;9.03;;;4.00;69.00;;;;;;4940334;29;20510;-80
2022/03/12 00:26:18;;;;;;;9.40;8.50;;;4.00;69.10;;;;;;4941633;29;20475;-80
2022/03/12 00:28:46;;;;;;;9.70;8.70;;;3.90;69.00;;;;;;4942405;29;20451;-80
2022/03/12 00:31:15;;;;;;;8.87;8.00;;;3.90;69.10;;;;;;4944819;29;20462;-80
2022/03/12 00:33:43;;;;;;;11.40;9.13;;;3.90;69.10;;;;;;4943335;29;20455;-79
2022/03/12 00:36:12;;;;;;;11.20;9.37;;;3.90;69.20;;;;;;4944681;29;20448;-80
2022/03/12 00:38:42;;;;;;;10.40;8.87;;;3.90;69.20;;;;;;4943452;29;20467;-80
2022/03/12 00:41:11;;;;;;;10.60;9.50;;;3.80;69.10;;;;;;4956560;29;20466;-80
2022/03/12 00:43:39;;;;;;;9.23;8.23;;;3.80;69.20;;;;;;4962278;28;20458;-80
2022/03/12 00:46:07;;;;;;;10.47;9.37;;;3.80;69.20;;;;;;4962892;28;20541;-80
2022/03/12 00:48:36;;;;;;;10.27;9.03;;;3.70;69.20;;;;;;4963562;28;20449;-80
2022/03/12 00:51:07;;;;;;;9.43;8.43;;;3.70;69.30;;;;;;4961827;29;20459;-80
2022/03/12 00:53:35;;;;;;;11.70;9.03;;;3.70;69.40;;;;;;4964074;28;20780;-80
2022/03/12 00:56:06;;;;;;;9.90;8.90;;;3.60;69.30;;;;;;4959424;28;20450;-80
2022/03/12 00:58:35;;;;;;;10.30;8.87;;;3.60;69.40;;;;;;4962466;29;20478;-80
2022/03/12 01:01:04;;;;;;;11.03;8.47;;;3.60;69.40;;;;;;4962413;29;20455;-80
2022/03/12 01:03:33;;;;;;;10.00;8.97;;;3.60;69.40;;;;;;4963267;28;20652;-80
2022/03/12 01:06:03;;;;;;;12.60;9.43;;;3.50;69.30;;;;;;4962372;28;20498;-80
2022/03/12 01:08:33;;;;;;;10.57;8.30;;;3.60;69.40;;;;;;4964262;29;20532;-80
2022/03/12 01:11:04;;;;;;;16.77;9.80;;;3.50;69.30;;;;;;4961105;29;20485;-80
2022/03/12 01:13:34;;;;;;;9.77;8.70;;;3.40;69.30;;;;;;4962273;28;20502;-80
2022/03/12 01:16:03;;;;;;;13.87;9.33;;;3.40;69.40;;;;;;4962406;28;20553;-80
2022/03/12 01:18:31;;;;;;;10.83;8.80;;;3.40;69.40;;;;;;4962411;28;20458;-80
2022/03/12 01:21:08;;;;;;;11.70;8.67;;;3.40;69.50;;;;;;4950872;28;20527;-80
2022/03/12 01:23:38;;;;;;;11.53;9.70;;;3.40;69.50;;;;;;4943072;28;20819;-79
2022/03/12 01:26:06;;;;;;;10.50;8.87;;;3.30;70.10;;;;;;4950530;29;20470;-80
2022/03/12 01:28:37;;;;;;;9.63;8.47;;;3.30;69.50;;;;;;4961836;28;20446;-80
2022/03/12 01:31:05;;;;;;;12.53;9.00;;;3.30;69.50;;;;;;4962464;29;20447;-80
2022/03/12 01:33:33;;;;;;;9.70;8.70;;;3.30;69.50;;;;;;4944696;29;20453;-80
2022/03/12 01:36:01;;;;;;;10.93;9.23;;;3.30;69.60;;;;;;4942890;29;20470;-80
2022/03/12 01:38:33;;;;;;;11.27;9.50;;;3.20;69.50;;;;;;4942112;29;20464;-80
2022/03/12 01:41:03;;;;;;;12.40;10.00;;;3.20;69.60;;;;;;4954565;29;20498;-80
2022/03/12 01:43:32;;;;;;;10.27;8.50;;;3.20;69.60;;;;;;4959058;28;20497;-80
2022/03/12 01:46:02;;;;;;;9.50;8.37;;;3.20;69.60;;;;;;4961935;28;20992;-80
2022/03/12 01:48:30;;;;;;;11.57;8.87;;;3.10;69.60;;;;;;4963364;28;20530;-80
2022/03/12 01:50:59;;;;;;;9.80;8.53;;;3.10;69.60;;;;;;4961884;28;20446;-80
2022/03/12 01:53:28;;;;;;;9.93;8.20;;;3.10;69.70;;;;;;4961364;28;20971;-80
2022/03/12 01:55:56;;;;;;;12.60;9.37;;;3.10;69.70;;;;;;4962153;28;20451;-80
2022/03/12 01:58:26;;;;;;;11.63;8.53;;;3.00;69.70;;;;;;4958080;28;20447;-80
2022/03/12 02:00:57;;;;;;;11.60;8.80;;;3.00;69.70;;;;;;4945105;28;20470;-80
2022/03/12 02:03:28;;;;;;;10.40;9.23;;;3.00;69.70;;;;;;4961266;29;20582;-80
2022/03/12 02:05:57;;;;;;;9.70;7.90;;;3.00;69.70;;;;;;4961596;28;20493;-80
2022/03/12 02:08:28;;;;;;;10.07;8.53;;;3.00;69.80;;;;;;4963626;29;20450;-80
2022/03/12 02:10:57;;;;;;;10.20;8.30;;;2.90;69.70;;;;;;4962367;28;20462;-80
2022/03/12 02:13:29;;;;;;;9.90;8.23;;;2.90;69.70;;;;;;4962884;28;20434;-79
2022/03/12 02:16:07;;;;;;;10.07;8.80;;;2.90;69.70;;;;;;4961778;28;20439;-80
2022/03/12 02:18:39;;;;;;;10.00;8.07;;;2.90;69.80;;;;;;4962124;28;20896;-79
2022/03/12 02:21:07;;;;;;;10.73;8.83;;;2.90;69.80;;;;;;4961199;28;20453;-80
2022/03/12 02:23:49;;;;;;;9.50;7.80;;;2.80;69.70;;;;;;4961618;28;20951;-80
2022/03/12 02:26:18;;;;;;;8.40;7.53;;;2.80;69.70;;;;;;4957910;29;20477;-80
2022/03/12 02:28:46;;;;;;;9.00;8.10;;;2.80;69.70;;;;;;4952068;28;21058;-80
2022/03/12 02:31:15;;;;;;;10.20;8.77;;;2.80;69.80;;;;;;4961352;28;20482;-80
2022/03/12 02:33:44;;;;;;;9.60;8.60;;;2.80;69.80;;;;;;4961204;28;20462;-80
2022/03/12 02:36:13;;;;;;;8.30;7.43;;;2.80;69.80;;;;;;4960816;28;20439;-80
2022/03/12 02:38:43;;;;;;;9.87;8.70;;;2.80;69.80;;;;;;4961499;29;20457;-80
2022/03/12 02:41:13;;;;;;;9.13;8.20;;;2.70;69.70;;;;;;4962396;28;20533;-80
2022/03/12 02:43:43;;;;;;;11.53;8.33;;;2.70;69.70;;;;;;4961134;28;20968;-80
2022/03/12 02:46:13;;;;;;;10.17;9.17;;;2.70;69.70;;;;;;4960841;29;20484;-80
2022/03/12 02:48:43;;;;;;;9.60;8.10;;;2.70;69.70;;;;;;4962145;28;20438;-80
2022/03/12 02:51:11;;;;;;;9.87;7.77;;;2.70;69.80;;;;;;4953143;28;20508;-80
2022/03/12 02:53:39;;;;;;;10.10;7.60;;;2.70;69.80;;;;;;4942013;29;20458;-80
2022/03/12 02:56:07;;;;;;;7.83;6.97;;;2.70;69.80;;;;;;4956198;29;20460;-80
2022/03/12 02:58:37;;;;;;;9.63;8.63;;;2.60;69.70;;;;;;4961030;28;20587;-80
2022/03/12 03:01:06;;;;;;;10.90;8.50;;;2.70;69.80;;;;;;4960665;28;20459;-80
2022/03/12 03:03:37;;;;;;;8.43;7.60;;;2.70;69.80;;;;;;4960957;28;20468;-80
2022/03/12 03:06:05;;;;;;;11.60;7.70;;;2.60;69.70;;;;;;4960806;29;20895;-80
2022/03/12 03:08:36;;;;;;;10.23;8.43;;;2.70;69.80;;;;;;4960905;28;20450;-80
2022/03/12 03:11:11;;;;;;;11.27;10.10;;;2.60;69.70;;;;;;4961085;28;21151;-80
2022/03/12 03:13:44;;;;;;;9.23;7.23;;;2.60;69.70;;;;;;4960220;28;20512;-80
2022/03/12 03:16:21;;;;;;;10.73;8.60;;;2.60;69.70;;;;;;4942543;29;20453;-80
2022/03/12 03:18:52;;;;;;;9.27;8.37;;;2.60;69.70;;;;;;4961480;28;20418;-80
2022/03/12 03:21:24;;;;;;;8.63;7.70;;;2.60;69.80;;;;;;4960913;28;20450;-80
2022/03/12 03:23:54;;;;;;;12.60;7.73;;;2.60;69.80;;;;;;4961023;28;20473;-80
2022/03/12 03:26:35;;;;;;;9.90;8.10;;;2.60;69.80;;;;;;4962305;28;20463;-80
2022/03/12 03:29:05;;;;;;;9.33;7.97;;;2.50;69.70;;;;;;4960217;29;20530;-80
2022/03/12 03:31:33;;;;;;;8.47;7.57;;;2.50;69.70;;;;;;4957401;29;20501;-80
2022/03/12 03:34:02;;;;;;;9.00;7.50;;;2.50;69.70;;;;;;4959314;28;20538;-80
2022/03/12 03:36:30;;;;;;;9.43;7.70;;;2.60;69.80;;;;;;4959067;29;20853;-80
2022/03/12 03:38:58;;;;;;;10.10;7.93;;;2.50;69.70;;;;;;4960437;28;20489;-80
2022/03/12 03:41:26;;;;;;;8.83;7.80;;;2.50;69.70;;;;;;4961554;28;20813;-80
2022/03/12 03:43:54;;;;;;;13.27;8.90;;;2.50;69.80;;;;;;4960414;28;21070;-80
2022/03/12 03:46:24;;;;;;;8.90;7.33;;;2.50;69.80;;;;;;4942734;28;20478;-80
2022/03/12 03:48:54;;;;;;;11.70;8.03;;;2.50;69.80;;;;;;4941833;29;20455;-80
2022/03/12 03:51:23;;;;;;;8.63;7.83;;;2.50;69.80;;;;;;4940745;29;20459;-80
2022/03/12 03:53:51;;;;;;;8.70;7.63;;;2.40;69.70;;;;;;4941363;29;20846;-80
2022/03/12 03:56:20;;;;;;;9.90;8.03;;;2.40;69.70;;;;;;4941145;29;20457;-80
2022/03/12 03:58:49;;;;;;;8.70;7.70;;;2.40;69.80;;;;;;4942733;29;20545;-80
2022/03/12 04:01:19;;;;;;;8.60;7.30;;;2.40;69.70;;;;;;4959289;28;20482;-80
2022/03/12 04:03:50;;;;;;;10.50;9.40;;;2.40;69.70;;;;;;4945365;29;20832;-80
2022/03/12 04:06:19;;;;;;;9.73;8.00;;;2.40;69.70;;;;;;4947405;29;20435;-80
2022/03/12 04:08:50;;;;;;;8.73;7.93;;;2.40;69.70;;;;;;4946187;29;20842;-80
2022/03/12 04:11:21;;;;;;;9.30;8.10;;;2.40;69.70;;;;;;4946952;28;20443;-80
2022/03/12 04:13:51;;;;;;;10.07;7.97;;;2.40;69.70;;;;;;4945660;29;20475;-80
2022/03/12 04:16:21;;;;;;;9.10;8.20;;;2.30;69.70;;;;;;4944944;29;20462;-80
2022/03/12 04:18:51;;;;;;;11.73;8.87;;;2.40;69.70;;;;;;4944901;29;20448;-80
2022/03/12 04:21:20;;;;;;;12.50;9.50;;;2.40;69.80;;;;;;4954477;29;20456;-80
2022/03/12 04:23:50;;;;;;;9.40;8.40;;;2.40;69.80;;;;;;4964798;29;20501;-81
2022/03/12 04:26:18;;;;;;;11.20;8.47;;;2.30;69.70;;;;;;4948447;28;20577;-80
2022/03/12 04:28:46;;;;;;;10.77;8.70;;;2.30;69.70;;;;;;4944662;29;20523;-80
2022/03/12 04:31:14;;;;;;;10.17;8.70;;;2.30;69.70;;;;;;4960544;28;20463;-80
2022/03/12 04:33:43;;;;;;;10.90;8.00;;;2.30;69.80;;;;;;4944593;28;20457;-80
2022/03/12 04:36:13;;;;;;;8.37;6.27;;;2.30;69.80;;;;;;4944353;28;20458;-80
2022/03/12 04:38:41;;;;;;;9.60;8.17;;;2.30;69.80;;;;;;4946285;29;20431;-80
2022/03/12 04:41:12;;;;;;;7.67;6.87;;;2.30;69.80;;;;;;4956453;29;20529;-80
2022/03/12 04:43:42;;;;;;;8.40;6.53;;;2.30;69.80;;;;;;4964985;28;20488;-80
2022/03/12 04:46:10;;;;;;;9.17;7.83;;;2.30;69.80;;;;;;4964398;28;20460;-80
2022/03/12 04:48:39;;;;;;;9.90;7.47;;;2.30;69.80;;;;;;4963972;28;20480;-80
2022/03/12 04:51:07;;;;;;;8.07;7.00;;;2.30;69.80;;;;;;4960107;28;20442;-80
2022/03/12 04:53:39;;;;;;;10.83;8.40;;;2.30;69.80;;;;;;4965266;28;20847;-80
2022/03/12 04:56:09;;;;;;;7.83;7.03;;;2.30;69.80;;;;;;4963110;29;20449;-80
2022/03/12 04:58:37;;;;;;;9.00;7.47;;;2.20;69.70;;;;;;4963534;28;20455;-80
2022/03/12 05:01:07;;;;;;;8.97;8.07;;;2.20;69.80;;;;;;4952287;28;20463;-80
2022/03/12 05:03:37;;;;;;;9.50;7.53;;;2.20;69.70;;;;;;4944329;28;20968;-80
2022/03/12 05:06:05;;;;;;;7.80;6.83;;;2.30;69.90;;;;;;4952884;29;20503;-80
2022/03/12 05:08:36;;;;;;;8.03;7.13;;;2.20;69.70;;;;;;4963586;28;20476;-80
2022/03/12 05:11:06;;;;;;;8.10;7.00;;;2.20;69.70;;;;;;4964822;28;20491;-80
2022/03/12 05:13:38;;;;;;;10.73;7.60;;;2.20;69.70;;;;;;4961903;28;20481;-80
2022/03/12 05:16:08;;;;;;;8.20;7.27;;;2.20;69.70;;;;;;4963074;28;20455;-80
2022/03/12 05:18:41;;;;;;;8.80;6.60;;;2.20;69.80;;;;;;4963267;28;20960;-80
2022/03/12 05:21:09;;;;;;;8.13;7.27;;;2.20;69.80;;;;;;4964122;29;20450;-80
2022/03/12 05:23:38;;;;;;;9.33;7.43;;;2.20;69.80;;;;;;4962864;28;20455;-80
2022/03/12 05:26:08;;;;;;;10.27;7.03;;;2.20;69.80;;;;;;4960430;28;20486;-80
2022/03/12 05:28:37;;;;;;;8.87;7.97;;;2.20;70.40;;;;;;4961858;28;20498;-80
2022/03/12 05:31:05;;;;;;;12.37;7.20;;;2.10;69.80;;;;;;4961322;28;20448;-79
2022/03/12 05:33:35;;;;;;;8.37;7.47;;;2.10;69.80;;;;;;4963290;28;20451;-80
2022/03/12 05:36:04;;;;;;;12.17;7.30;;;2.10;69.80;;;;;;4962304;28;20514;-80
2022/03/12 05:38:34;;;;;;;8.07;7.27;;;2.10;69.80;;;;;;4963152;28;20454;-80
2022/03/12 05:41:10;;;;;;;9.43;7.20;;;2.10;69.90;;;;;;4959725;28;20485;-80
2022/03/12 05:43:44;;;;;;;7.87;6.97;;;2.10;70.00;;;;;;4960898;29;20824;-79
2022/03/12 05:46:15;;;;;;;9.17;8.13;;;2.10;70.00;;;;;;4959430;29;20468;-80
2022/03/12 05:48:45;;;;;;;9.50;7.07;;;2.10;70.00;;;;;;4941579;28;20534;-79
2022/03/12 05:51:14;;;;;;;9.00;7.30;;;2.10;70.00;;;;;;4954866;29;21005;-79
2022/03/12 05:53:43;;;;;;;8.40;7.07;;;2.00;70.00;;;;;;4942052;29;20479;-80
2022/03/12 05:56:12;;;;;;;8.73;7.60;;;2.10;70.10;;;;;;4941943;29;20546;-79
2022/03/12 05:58:41;;;;;;;9.57;8.07;;;2.10;70.10;;;;;;4956967;28;20447;-79
2022/03/12 06:01:10;;;;;;;8.20;7.40;;;2.10;70.10;;;;;;4953095;28;20490;-79
2022/03/12 06:03:39;;;;;;;13.70;7.27;;;2.10;70.10;;;;;;4960614;29;20452;-79
2022/03/12 06:06:07;;;;;;;9.47;7.40;;;2.10;70.90;;;;;;4960515;28;20464;-79
2022/03/12 06:08:35;;;;;;;8.70;6.80;;;2.10;70.10;;;;;;4959540;29;21088;-79
2022/03/12 06:11:03;;;;;;;7.77;6.60;;;2.10;70.20;;;;;;4962064;29;20450;-80
2022/03/12 06:13:32;;;;;;;8.53;7.30;;;2.10;70.20;;;;;;4959937;28;20464;-79
2022/03/12 06:16:04;;;;;;;9.97;7.13;;;2.10;70.30;;;;;;4961436;28;20455;-79
2022/03/12 06:18:35;;;;;;;8.90;7.53;;;2.10;70.30;;;;;;4947516;29;20462;-80
2022/03/12 06:21:05;;;;;;;7.70;7.00;;;2.10;70.30;;;;;;4946541;29;20557;-79
2022/03/12 06:23:33;;;;;;;6.97;6.30;;;2.10;70.30;;;;;;4959475;28;20553;-79
2022/03/12 06:26:03;;;;;;;8.17;7.37;;;2.10;70.40;;;;;;4959062;28;20531;-79
2022/03/12 06:28:32;;;;;;;7.43;6.50;;;2.10;70.40;;;;;;4960604;29;20583;-79
2022/03/12 06:31:02;;;;;;;10.80;7.00;;;2.10;70.40;;;;;;4960206;28;20458;-79
2022/03/12 06:33:31;;;;;;;8.77;7.87;;;2.10;70.40;;;;;;4959029;28;20469;-80
2022/03/12 06:36:01;;;;;;;8.40;7.60;;;2.10;70.40;;;;;;4945995;28;20514;-79
2022/03/12 06:38:30;;;;;;;9.93;8.93;;;2.10;70.40;;;;;;4955062;29;20463;-79
2022/03/12 06:40:58;;;;;;;9.50;6.87;;;2.20;70.50;;;;;;4960826;28;20584;-79
2022/03/12 06:43:28;;;;;;;8.70;6.97;;;2.20;70.50;;;;;;4958936;29;20459;-79
2022/03/12 06:46:01;;;;;;;11.20;7.80;;;2.20;70.40;;;;;;4960711;29;20990;-79
2022/03/12 06:48:32;;;;;;;8.37;7.40;;;2.20;70.40;;;;;;4959933;29;20554;-79
2022/03/12 06:51:00;;;;;;;8.07;7.00;;;2.20;70.50;;;;;;4958778;28;20532;-79
2022/03/12 06:53:28;;;;;;;9.00;7.13;;;2.20;70.60;;;;;;4950723;28;20902;-79
2022/03/12 06:55:58;;;;;;;8.77;7.47;;;2.20;70.60;;;;;;4940527;29;20552;-79
2022/03/12 06:58:29;;;;;;;8.90;7.43;;;2.30;70.70;;;;;;4956894;29;20460;-79
2022/03/12 07:00:58;;;;;;;9.40;7.57;;;2.30;70.80;;;;;;4958372;29;20468;-79
2022/03/12 07:03:27;;;;;;;9.90;7.20;;;2.30;70.70;;;;;;4958519;29;20471;-80
2022/03/12 07:05:56;;;;;;;9.37;6.77;;;2.30;70.80;;;;;;4958195;28;20534;-79
2022/03/12 07:08:24;;;;;;;8.90;7.40;;;2.30;71.40;;;;;;4958282;28;20485;-78
2022/03/12 07:10:53;;;;;;;8.10;6.37;;;2.40;70.80;;;;;;4958438;28;20862;-79
2022/03/12 07:13:21;;;;;;;8.93;7.23;;;2.40;70.80;;;;;;4958038;29;20453;-79
2022/03/12 07:15:50;;;;;;;9.93;6.87;;;2.40;70.80;;;;;;4956792;28;20561;-79
2022/03/12 07:18:18;;;;;;;8.33;7.17;;;2.50;70.90;;;;;;4956392;29;20441;-78
2022/03/12 07:20:47;;;;;;;9.53;7.70;;;2.60;71.00;;;;;;4954607;28;20450;-78
2022/03/12 07:23:17;;;;;;;9.23;7.77;;;2.70;71.20;;;;;;4954326;28;20446;-77
2022/03/12 07:25:45;;;;;;;10.17;7.63;;;2.80;71.30;;;;;;4948823;28;20475;-77
2022/03/12 07:28:17;;;;;;;8.93;7.90;;;2.90;71.30;;;;;;4936448;29;20451;-77
2022/03/12 07:30:45;;;;;;;9.33;7.87;;;2.90;71.20;;;;;;4945333;29;20527;-78
2022/03/12 07:33:14;;;;;;;12.70;6.90;;;3.00;71.30;;;;;;4956323;28;20462;-78
2022/03/12 07:35:42;;;;;;;8.73;6.93;;;3.10;72.00;;;;;;4956542;28;20543;-78
2022/03/12 07:38:13;;;;;;;7.40;6.53;;;3.20;71.40;;;;;;4963074;28;20454;-79
2022/03/12 07:40:42;;;;;;;7.20;6.50;;;3.20;71.40;;;;;;4962749;28;20454;-78
2022/03/12 07:43:11;;;;;;;9.20;7.10;;;3.30;71.60;;;;;;4962910;29;20552;-78
2022/03/12 07:45:39;;;;;;;8.83;7.20;;;3.40;71.60;;;;;;4954741;29;20505;-79
2022/03/12 07:48:08;;;;;;;11.07;7.70;;;3.40;71.50;;;;;;4962912;28;20498;-78
2022/03/12 07:50:56;;;;;;;7.40;6.70;;;3.50;71.60;;;;;;4963097;28;20437;-78
2022/03/12 07:53:26;;;;;;;8.50;6.93;;;3.60;71.60;;;;;;4953153;28;20481;-78
2022/03/12 07:55:56;;;;;;;9.90;6.87;;;3.70;71.70;;;;;;4943409;29;20872;-78
2022/03/12 07:58:28;;;;;;;8.13;6.83;;;3.70;71.70;;;;;;4943236;28;20444;-78
2022/03/12 08:00:58;;;;;;;118.33;19.23;;;3.80;71.60;;;;;;4942944;29;20534;-78
2022/03/12 08:03:28;;;;;;;10.40;9.30;;;3.90;71.60;;;;;;4943025;29;20454;-78
2022/03/12 08:05:58;;;;;;;10.13;7.50;;;4.00;71.60;;;;;;4943054;29;20455;-79
2022/03/12 08:08:26;;;;;;;7.90;7.00;;;4.00;71.60;;;;;;4944275;29;21017;-79
2022/03/12 08:13:44;;;;;;;8.13;6.17;;;4.30;71.50;;;;;;4945042;29;20423;-79
2022/03/12 08:16:15;;;;;;;8.80;7.90;;;4.40;71.60;;;;;;4963727;28;20454;-79
2022/03/12 08:18:44;;;;;;;8.83;7.27;;;4.60;71.60;;;;;;4962370;28;20879;-79
2022/03/12 08:21:13;;;;;;;8.33;7.20;;;4.70;71.50;;;;;;4962694;28;20454;-79
2022/03/12 08:23:42;;;;;;;8.13;6.87;;;4.90;71.70;;;;;;4962531;28;20446;-78
2022/03/12 08:26:11;;;;;;;10.57;7.20;;;5.10;71.60;;;;;;4962511;28;20561;-79
2022/03/12 08:28:40;;;;;;;7.50;6.40;;;5.20;71.50;;;;;;4962375;28;20458;-79
2022/03/12 08:31:08;;;;;;;8.40;7.50;;;5.40;71.60;;;;;;4953908;28;20464;-79
2022/03/12 08:33:37;;;;;;;9.20;7.93;;;5.50;71.40;;;;;;4963465;28;20450;-79
2022/03/12 08:36:06;;;;;;;10.90;8.27;;;5.60;71.20;;;;;;4963647;28;20551;-78
2022/03/12 08:38:35;;;;;;;7.57;6.77;;;5.80;71.30;;;;;;4962085;28;20455;-78
2022/03/12 08:41:06;;;;;;;166.87;32.50;;;6.00;71.40;;;;;;4962458;28;20462;-78
2022/03/12 08:43:37;;;;;;;13.20;7.30;;;6.00;71.20;;;;;;4943768;29;20461;-78
2022/03/12 08:46:07;;;;;;;8.40;6.93;;;6.20;71.10;;;;;;4944469;29;21077;-78
2022/03/12 08:48:36;;;;;;;10.20;7.30;;;6.30;71.10;;;;;;4941594;29;20466;-79
2022/03/12 08:51:05;;;;;;;8.30;7.40;;;6.50;71.20;;;;;;4956057;29;20567;-79
2022/03/12 08:53:34;;;;;;;8.93;7.20;;;6.60;71.20;;;;;;4959464;28;20463;-79
2022/03/12 08:56:02;;;;;;;8.00;7.20;;;6.70;71.00;;;;;;4960152;28;20496;-80
2022/03/12 08:58:31;;;;;;;7.83;7.13;;;6.80;71.00;;;;;;4943686;29;20448;-80
2022/03/12 09:01:03;;;;;;;7.70;6.90;;;7.00;71.20;;;;;;4944569;29;20446;-80
2022/03/12 09:03:32;;;;;;;14.33;8.20;;;7.10;71.40;;;;;;4954410;29;20448;-78
2022/03/12 09:06:00;;;;;;;11.77;7.40;;;7.20;71.40;;;;;;4959042;28;20552;-79
2022/03/12 09:08:29;;;;;;;1107.13;150.37;;;7.30;71.30;;;;;;4963117;28;20430;-80
2022/03/12 09:10:59;;;;;;;88.30;21.93;;;7.30;71.30;;;;;;4963297;29;20573;-80
2022/03/12 09:13:28;;;;;;;14.40;7.17;;;7.40;71.40;;;;;;4961520;28;20489;-80
2022/03/12 09:15:56;;;;;;;9.47;8.30;;;7.50;71.30;;;;;;4942607;29;20515;-80
2022/03/12 09:18:26;;;;;;;8.93;7.70;;;7.60;71.20;;;;;;4942993;29;20493;-80
2022/03/12 09:20:54;;;;;;;10.73;7.60;;;7.70;71.30;;;;;;4955557;29;20462;-80
2022/03/12 09:23:23;;;;;;;7.97;7.17;;;7.80;71.40;;;;;;4962315;28;20517;-80
2022/03/12 09:25:52;;;;;;;8.20;6.83;;;7.80;71.20;;;;;;4961353;28;21091;-80
2022/03/12 09:28:22;;;;;;;8.10;6.67;;;7.90;71.20;;;;;;4961796;28;20506;-80
2022/03/12 09:30:51;;;;;;;7.50;6.80;;;8.00;71.20;;;;;;4960195;28;20565;-79
2022/03/12 09:33:21;;;;;;;8.33;7.53;;;8.10;71.20;;;;;;4962074;28;20460;-80
2022/03/12 09:35:53;;;;;;;8.20;6.97;;;8.20;71.20;;;;;;4963409;28;20811;-80
2022/03/12 09:38:22;;;;;;;7.40;6.70;;;8.20;71.10;;;;;;4951914;28;20472;-80
2022/03/12 09:40:50;;;;;;;7.93;7.10;;;8.20;71.00;;;;;;4943327;28;20491;-80
2022/03/12 09:43:19;;;;;;;11.40;7.60;;;8.30;70.90;;;;;;4958911;29;20501;-80
2022/03/12 09:45:47;;;;;;;8.37;7.13;;;8.30;70.70;;;;;;4961951;28;20476;-80
2022/03/12 09:48:20;;;;;;;9.63;7.73;;;8.40;71.40;;;;;;4962316;28;20533;-79
2022/03/12 09:50:49;;;;;;;8.10;7.30;;;8.40;70.80;;;;;;4957287;28;20526;-80
2022/03/12 09:53:18;;;;;;;7.97;7.00;;;8.40;70.80;;;;;;4961104;28;20474;-80
2022/03/12 09:55:46;;;;;;;10.53;7.43;;;8.50;71.00;;;;;;4959522;29;20478;-80
2022/03/12 09:58:15;;;;;;;9.53;7.97;;;8.60;70.80;;;;;;4961117;28;20454;-79
2022/03/12 10:00:44;;;;;;;8.27;7.47;;;8.60;70.70;;;;;;4943154;29;20431;-80
2022/03/12 10:03:12;;;;;;;8.33;7.43;;;8.60;70.60;;;;;;4958754;28;20971;-79
2022/03/12 10:05:41;;;;;;;9.63;8.83;;;8.60;70.50;;;;;;4961350;28;21064;-80
2022/03/12 10:08:11;;;;;;;14.53;13.07;;;8.70;70.50;;;;;;4961462;28;20546;-78
2022/03/12 10:10:39;;;;;;;8.53;7.73;;;8.70;71.30;;;;;;4946204;28;20479;-78
2022/03/12 10:13:08;;;;;;;8.73;7.37;;;8.80;70.80;;;;;;4941721;29;20950;-78
2022/03/12 10:15:36;;;;;;;8.20;7.30;;;8.80;70.80;;;;;;4940428;29;20476;-78
2022/03/12 10:18:05;;;;;;;7.57;6.87;;;8.90;70.90;;;;;;4939762;29;20901;-78
2022/03/12 10:20:34;;;;;;;9.33;7.60;;;8.90;71.00;;;;;;4943973;29;20963;-78
2022/03/12 10:23:02;;;;;;;8.70;7.50;;;9.00;71.10;;;;;;4961468;28;20489;-78
2022/03/12 10:25:34;;;;;;;9.13;7.97;;;9.00;71.10;;;;;;4956795;28;20869;-78
2022/03/12 10:28:02;;;;;;;8.80;7.50;;;9.00;71.20;;;;;;4942958;29;20937;-79
2022/03/12 10:30:31;;;;;;;8.57;7.13;;;9.10;71.30;;;;;;4941894;29;20511;-78
2022/03/12 10:32:59;;;;;;;7.83;7.03;;;9.10;71.30;;;;;;4941219;29;20456;-78
2022/03/12 10:35:34;;;;;;;15.30;13.73;;;9.20;71.40;;;;;;4943165;29;20483;-79
2022/03/12 10:38:03;;;;;;;9.40;8.50;;;9.30;71.60;;;;;;4945473;28;20881;-79
2022/03/12 10:40:35;;;;;;;8.53;7.63;;;9.30;71.60;;;;;;4945457;29;20459;-79
2022/03/12 10:43:12;;;;;;;7.90;7.10;;;9.30;71.80;;;;;;4944765;28;20937;-79
2022/03/12 10:45:43;;;;;;;8.37;7.47;;;9.30;71.90;;;;;;4944247;29;20510;-79
2022/03/12 10:48:12;;;;;;;9.80;8.23;;;9.40;72.00;;;;;;4955282;28;20470;-79
2022/03/12 10:50:46;;;;;;;17.30;8.40;;;9.40;71.90;;;;;;4946970;29;20468;-79
2022/03/12 10:53:15;;;;;;;9.13;8.23;;;9.50;72.00;;;;;;4961931;29;20434;-80
2022/03/12 10:55:47;;;;;;;29.10;9.87;;;9.60;72.20;;;;;;4963539;28;20481;-80
2022/03/12 10:58:21;;;;;;;10.57;7.70;;;9.60;72.40;;;;;;4962995;29;20988;-80
2022/03/12 11:00:51;;;;;;;9.00;8.10;;;9.60;72.50;;;;;;4960036;29;20447;-79
2022/03/12 11:03:22;;;;;;;8.47;7.77;;;9.70;72.60;;;;;;4963475;28;20423;-79
2022/03/12 11:05:52;;;;;;;11.00;7.73;;;9.70;72.70;;;;;;4964299;28;20474;-79
2022/03/12 11:08:23;;;;;;;9.13;7.77;;;9.80;72.70;;;;;;4962983;29;20442;-79
2022/03/12 11:10:57;;;;;;;8.57;7.77;;;9.80;72.80;;;;;;4962815;28;20475;-79
2022/03/12 11:13:38;;;;;;;8.63;7.83;;;9.90;72.70;;;;;;4962507;28;20450;-79
2022/03/12 11:16:12;;;;;;;10.13;9.07;;;9.90;72.90;;;;;;4962883;29;20438;-79
2022/03/12 11:19:12;;;;;;;11.30;7.57;;;10.00;72.00;;;;;;4959061;28;20992;-79
2022/03/12 11:21:44;;;;;;;10.40;8.63;;;10.00;72.20;;;;;;4946117;28;20473;-80
2022/03/12 11:24:17;;;;;;;9.97;8.97;;;10.10;72.50;;;;;;4949562;28;21107;-80
2022/03/12 11:26:49;;;;;;;9.23;8.30;;;10.20;72.60;;;;;;4945660;29;20463;-80
2022/03/12 11:29:18;;;;;;;9.10;8.20;;;10.20;72.80;;;;;;4944678;28;20451;-80
2022/03/12 11:31:49;;;;;;;8.57;7.73;;;10.30;72.90;;;;;;4944311;29;20474;-80
2022/03/12 11:34:23;;;;;;;8.93;8.10;;;10.30;73.10;;;;;;4944206;29;20483;-80
2022/03/12 11:37:08;;;;;;;10.17;9.20;;;10.40;73.20;;;;;;4944035;29;20515;-80
2022/03/12 11:39:39;;;;;;;10.60;9.00;;;10.40;73.40;;;;;;4945727;29;20439;-79
2022/03/12 11:42:13;;;;;;;10.67;9.57;;;10.50;73.50;;;;;;4945016;29;20432;-79
2022/03/12 11:44:44;;;;;;;8.90;7.80;;;10.50;74.20;;;;;;4944381;29;20868;-79
2022/03/12 11:47:14;;;;;;;10.53;8.63;;;10.60;73.80;;;;;;4944636;29;20447;-80
2022/03/12 11:49:43;;;;;;;9.07;8.13;;;10.60;73.80;;;;;;4946569;29;20443;-79
2022/03/12 11:52:12;;;;;;;8.70;7.87;;;10.70;74.00;;;;;;4945836;28;20476;-79
2022/03/12 11:54:43;;;;;;;9.90;8.90;;;10.80;74.30;;;;;;4948480;29;20889;-79
2022/03/12 11:57:20;;;;;;;9.60;8.60;;;10.80;74.30;;;;;;4961796;29;20453;-80
2022/03/12 11:59:48;;;;;;;10.20;9.13;;;10.90;74.50;;;;;;4949003;28;20519;-79
2022/03/12 12:02:29;;;;;;;17.17;12.30;;;10.90;74.60;;;;;;4959383;29;20458;-80
2022/03/12 12:04:59;;;;;;;10.97;9.80;;;11.00;74.70;;;;;;4962238;28;20599;-80
2022/03/12 12:07:33;;;;;;;12.23;10.93;;;11.00;74.70;;;;;;4963083;28;20956;-80
2022/03/12 12:10:01;;;;;;;14.37;11.90;;;11.10;74.90;;;;;;4961707;29;20450;-80
2022/03/12 12:12:38;;;;;;;13.50;11.13;;;11.10;74.90;;;;;;4961229;28;20557;-80
2022/03/12 12:15:11;;;;;;;13.50;10.80;;;11.20;75.10;;;;;;4967427;28;20462;-80
2022/03/12 12:17:43;;;;;;;10.67;9.40;;;11.20;75.10;;;;;;4950482;29;20443;-81
2022/03/12 12:20:13;;;;;;;10.13;9.13;;;11.30;75.40;;;;;;4951022;29;20455;-80
2022/03/12 12:22:41;;;;;;;12.77;11.47;;;11.30;75.30;;;;;;4964515;28;20608;-81
2022/03/12 12:25:10;;;;;;;9.20;8.30;;;11.40;75.40;;;;;;4968604;29;20888;-80
2022/03/12 12:27:45;;;;;;;18.13;14.27;;;11.50;75.20;;;;;;4966982;28;20972;-80
2022/03/12 12:30:16;;;;;;;9.80;8.90;;;11.50;75.20;;;;;;4961282;28;20458;-79
2022/03/12 12:32:46;;;;;;;16.00;9.57;;;11.50;75.30;;;;;;4947607;28;20518;-79
2022/03/12 12:35:17;;;;;;;11.20;9.33;;;11.60;75.60;;;;;;4962907;28;20552;-80
2022/03/12 12:37:52;;;;;;;11.30;10.10;;;11.60;75.80;;;;;;4947978;29;20471;-80
2022/03/12 12:40:29;;;;;;;12.10;10.80;;;11.70;75.70;;;;;;4948197;29;20458;-81
2022/03/12 12:43:03;;;;;;;12.43;10.87;;;11.80;75.90;;;;;;4947897;29;20458;-79
2022/03/12 12:45:36;;;;;;;9.50;8.53;;;11.80;76.30;;;;;;4962094;29;20549;-80
2022/03/12 12:48:10;;;;;;;10.80;9.30;;;11.90;76.80;;;;;;4953143;28;20455;-80
2022/03/12 12:50:39;;;;;;;17.70;15.07;;;11.90;76.30;;;;;;4961508;29;20546;-81
2022/03/12 12:53:16;;;;;;;15.20;13.70;;;12.00;76.40;;;;;;4946656;29;20468;-81
2022/03/12 12:55:45;;;;;;;14.83;13.03;;;12.00;76.40;;;;;;4945829;29;20479;-81
2022/03/12 12:58:15;;;;;;;11.37;10.27;;;12.10;76.50;;;;;;4946064;29;20452;-81
2022/03/12 13:00:46;;;;;;;10.73;9.63;;;12.00;76.40;;;;;;4950648;29;20464;-80
2022/03/12 13:03:18;;;;;;;10.30;9.30;;;12.10;76.60;;;;;;4963007;29;20505;-81
2022/03/12 13:05:52;;;;;;;10.40;9.37;;;12.10;76.50;;;;;;4964689;28;20474;-81
2022/03/12 13:08:24;;;;;;;10.00;8.97;;;12.20;76.70;;;;;;4965187;28;20478;-81